createdAt,value
2023-01-13T00:01:30.147Z,6.60
2023-01-13T00:04:00.736Z,4.70
2023-01-13T00:06:30.073Z,6.10
2023-01-13T00:08:58.304Z,6.70
2023-01-13T00:11:26.960Z,6.20
2023-01-13T00:13:55.151Z,6.20
2023-01-13T00:16:23.549Z,5.80
2023-01-13T00:18:52.479Z,6.10
2023-01-13T00:21:23.227Z,6.10
2023-01-13T00:23:54.126Z,5.90
2023-01-13T00:26:25.648Z,6.50
2023-01-13T00:29:01.316Z,6.00
2023-01-13T00:31:30.724Z,6.30
2023-01-13T00:34:01.779Z,3.70
2023-01-13T00:36:30.823Z,5.90
2023-01-13T00:38:59.076Z,6.00
2023-01-13T00:41:27.603Z,7.00
2023-01-13T00:43:56.464Z,6.30
2023-01-13T00:46:24.721Z,6.40
2023-01-13T00:48:52.996Z,6.40
2023-01-13T00:51:22.661Z,6.30
2023-01-13T00:53:52.473Z,6.00
2023-01-13T00:56:39.040Z,5.40
2023-01-13T00:59:11.159Z,5.50
2023-01-13T01:01:40.948Z,4.90
2023-01-13T01:04:09.550Z,3.50
2023-01-13T01:06:37.980Z,5.70
2023-01-13T01:09:06.591Z,5.00
2023-01-13T01:11:35.547Z,3.20
2023-01-13T01:14:05.113Z,5.60
2023-01-13T01:16:34.897Z,3.50
2023-01-13T01:19:03.598Z,5.90
2023-01-13T01:21:32.952Z,5.50
2023-01-13T01:24:04.037Z,5.60
2023-01-13T01:26:33.557Z,5.40
2023-01-13T01:29:02.175Z,3.30
2023-01-13T01:31:33.069Z,3.60
2023-01-13T01:34:02.433Z,5.80
2023-01-13T01:36:31.147Z,5.90
2023-01-13T01:39:00.435Z,5.60
2023-01-13T01:41:33.328Z,6.10
2023-01-13T01:44:42.910Z,5.80
2023-01-13T01:47:15.064Z,6.30
2023-01-13T01:49:45.741Z,5.30
2023-01-13T01:52:24.198Z,3.80
2023-01-13T01:55:17.506Z,4.80
2023-01-13T01:58:09.077Z,4.50
2023-01-13T02:00:37.492Z,3.80
2023-01-13T02:03:08.269Z,3.80
2023-01-13T02:05:36.961Z,3.50
2023-01-13T02:08:08.255Z,3.10
2023-01-13T02:10:37.011Z,3.30
2023-01-13T02:13:09.138Z,3.30
2023-01-13T02:16:03.060Z,2.80
2023-01-13T02:18:49.655Z,2.60
2023-01-13T02:21:28.752Z,1.70
2023-01-13T02:24:46.424Z,1.20
2023-01-13T02:27:44.357Z,1.80
2023-01-13T02:30:41.048Z,2.10
2023-01-13T02:33:34.022Z,1.80
2023-01-13T02:36:15.782Z,1.00
2023-01-13T02:38:56.850Z,1.50
2023-01-13T02:41:32.133Z,1.70
2023-01-13T02:44:03.344Z,2.10
2023-01-13T02:46:36.928Z,1.10
2023-01-13T02:49:10.508Z,0.80
2023-01-13T02:51:41.338Z,1.40
2023-01-13T02:54:24.726Z,1.30
2023-01-13T02:56:56.527Z,1.30
2023-01-13T02:59:26.356Z,1.40
2023-01-13T03:01:57.598Z,1.10
2023-01-13T03:04:44.890Z,1.50
2023-01-13T03:07:29.176Z,1.20
2023-01-13T03:10:16.918Z,1.10
2023-01-13T03:13:04.476Z,1.20
2023-01-13T03:16:00.281Z,1.10
2023-01-13T03:18:43.635Z,1.20
2023-01-13T03:21:33.813Z,1.00
2023-01-13T03:24:36.998Z,1.00
2023-01-13T03:27:14.840Z,0.90
2023-01-13T03:32:37.422Z,1.60
2023-01-13T03:35:05.949Z,1.30
2023-01-13T03:37:39.646Z,1.40
2023-01-13T03:40:32.932Z,1.00
2023-01-13T03:43:06.326Z,1.50
2023-01-13T03:45:37.586Z,1.20
2023-01-13T03:48:11.235Z,1.30
2023-01-13T03:50:54.031Z,1.50
2023-01-13T03:53:32.841Z,1.20
2023-01-13T03:56:19.904Z,1.40
2023-01-13T03:58:50.654Z,1.60
2023-01-13T04:01:29.613Z,1.20
2023-01-13T04:04:03.876Z,1.60
2023-01-13T04:06:38.649Z,1.40
2023-01-13T04:09:51.039Z,1.50
2023-01-13T04:12:22.130Z,1.90
2023-01-13T04:14:51.714Z,1.90
2023-01-13T04:17:20.776Z,1.70
2023-01-13T04:19:49.745Z,1.60
2023-01-13T04:22:17.948Z,1.50
2023-01-13T04:24:46.202Z,1.70
2023-01-13T04:27:14.539Z,1.70
2023-01-13T04:29:42.756Z,1.70
2023-01-13T04:32:10.925Z,1.70
2023-01-13T04:34:40.203Z,1.30
2023-01-13T04:37:08.977Z,1.80
2023-01-13T04:39:37.531Z,2.10
2023-01-13T04:42:07.983Z,2.10
2023-01-13T04:44:36.347Z,1.80
2023-01-13T04:47:05.477Z,1.60
2023-01-13T04:49:34.375Z,1.90
2023-01-13T04:52:02.604Z,1.80
2023-01-13T04:54:30.964Z,1.80
2023-01-13T04:56:59.685Z,1.80
2023-01-13T04:59:28.163Z,1.80
2023-01-13T05:01:56.531Z,2.00
2023-01-13T05:04:25.692Z,2.10
2023-01-13T05:06:53.967Z,1.20
2023-01-13T05:09:22.200Z,1.80
2023-01-13T05:11:50.511Z,1.90
2023-01-13T05:14:18.753Z,1.90
2023-01-13T05:16:50.599Z,2.10
2023-01-13T05:19:18.902Z,1.90
2023-01-13T05:21:47.295Z,2.20
2023-01-13T05:24:16.026Z,1.30
2023-01-13T05:26:45.067Z,2.20
2023-01-13T05:29:13.331Z,2.30
2023-01-13T05:31:41.674Z,2.10
2023-01-13T05:34:10.034Z,1.90
2023-01-13T05:36:38.505Z,2.20
2023-01-13T05:39:06.790Z,2.30
2023-01-13T05:41:34.979Z,1.90
2023-01-13T05:44:03.255Z,2.40
2023-01-13T05:46:31.798Z,2.40
2023-01-13T05:49:00.316Z,2.20
2023-01-13T05:51:28.603Z,2.00
2023-01-13T05:53:57.041Z,1.30
2023-01-13T05:56:25.358Z,1.30
2023-01-13T05:58:53.937Z,1.90
2023-01-13T06:01:22.316Z,1.80
2023-01-13T06:03:51.229Z,1.70
2023-01-13T06:06:19.611Z,1.80
2023-01-13T06:08:48.286Z,1.80
2023-01-13T06:11:16.555Z,2.10
2023-01-13T06:13:44.898Z,1.90
2023-01-13T06:16:13.261Z,2.10
2023-01-13T06:18:41.593Z,2.10
2023-01-13T06:21:09.878Z,1.80
2023-01-13T06:23:38.806Z,1.20
2023-01-13T06:26:17.415Z,1.90
2023-01-13T06:28:45.732Z,1.80
2023-01-13T06:31:14.061Z,1.80
2023-01-13T06:33:54.925Z,2.00
2023-01-13T06:36:27.984Z,1.70
2023-01-13T06:39:00.355Z,2.10
2023-01-13T06:41:31.360Z,1.80
2023-01-13T06:43:59.771Z,1.80
2023-01-13T06:46:28.208Z,2.20
2023-01-13T06:48:56.471Z,1.70
2023-01-13T06:51:24.811Z,1.90
2023-01-13T06:53:54.193Z,1.90
2023-01-13T06:56:25.409Z,1.70
2023-01-13T06:58:54.272Z,1.70
2023-01-13T07:01:23.013Z,2.20
2023-01-13T07:03:51.245Z,1.90
2023-01-13T07:06:19.463Z,2.30
2023-01-13T07:08:48.106Z,2.30
2023-01-13T07:11:16.384Z,1.20
2023-01-13T07:13:44.729Z,2.40
2023-01-13T07:16:13.514Z,1.50
2023-01-13T07:18:42.222Z,2.10
2023-01-13T07:21:12.512Z,2.10
2023-01-13T07:23:42.098Z,2.10
2023-01-13T07:26:12.413Z,2.10
2023-01-13T07:28:42.848Z,2.00
2023-01-13T07:31:17.989Z,2.50
2023-01-13T07:33:49.415Z,2.60
2023-01-13T07:36:17.834Z,2.00
2023-01-13T07:38:46.029Z,2.20
2023-01-13T07:41:15.765Z,1.80
2023-01-13T07:43:44.204Z,1.70
2023-01-13T07:46:12.596Z,1.90
2023-01-13T07:48:41.348Z,1.70
2023-01-13T07:51:12.288Z,2.50
2023-01-13T07:53:40.528Z,2.40
2023-01-13T07:56:09.700Z,2.80
2023-01-13T07:58:38.672Z,2.60
2023-01-13T08:01:14.223Z,2.30
2023-01-13T08:03:43.341Z,2.20
2023-01-13T08:06:13.023Z,2.10
2023-01-13T08:08:41.279Z,1.90
2023-01-13T08:11:09.978Z,1.70
2023-01-13T08:13:38.326Z,1.70
2023-01-13T08:16:09.469Z,1.60
2023-01-13T08:18:41.477Z,1.50
2023-01-13T08:21:14.628Z,1.60
2023-01-13T08:23:44.932Z,1.30
2023-01-13T08:26:16.569Z,1.50
2023-01-13T08:28:45.940Z,1.70
2023-01-13T08:31:16.827Z,1.90
2023-01-13T08:33:45.282Z,1.70
2023-01-13T08:36:13.712Z,1.70
2023-01-13T08:38:42.332Z,1.60
2023-01-13T08:41:16.883Z,1.30
2023-01-13T08:43:45.422Z,1.50
2023-01-13T08:46:13.756Z,1.50
2023-01-13T08:48:42.118Z,1.20
2023-01-13T08:51:11.908Z,1.40
2023-01-13T08:53:40.049Z,1.70
2023-01-13T08:56:09.371Z,1.60
2023-01-13T08:58:37.542Z,1.60
2023-01-13T09:01:07.359Z,1.30
2023-01-13T09:03:36.065Z,1.60
2023-01-13T09:06:04.742Z,1.70
2023-01-13T09:08:33.001Z,1.30
2023-01-13T09:11:01.705Z,1.90
2023-01-13T09:13:30.869Z,2.30
2023-01-13T09:15:59.178Z,2.00
2023-01-13T09:18:27.679Z,1.90
2023-01-13T09:20:55.903Z,1.90
2023-01-13T09:23:24.008Z,2.40
2023-01-13T09:25:53.301Z,2.30
2023-01-13T09:28:21.468Z,2.50
2023-01-13T09:30:50.762Z,2.80
2023-01-13T09:33:18.997Z,2.90
2023-01-13T09:35:50.224Z,2.30
2023-01-13T09:38:19.711Z,2.20
2023-01-13T09:40:50.995Z,2.10
2023-01-13T09:43:57.441Z,2.20
2023-01-13T09:46:53.812Z,2.40
2023-01-13T09:49:40.940Z,2.20
2023-01-13T09:52:27.996Z,2.00
2023-01-13T09:57:41.466Z,2.60
2023-01-13T10:00:20.828Z,1.40
2023-01-13T10:03:14.501Z,1.50
2023-01-13T10:06:08.864Z,1.00
2023-01-13T10:08:43.207Z,0.90
2023-01-13T10:14:03.150Z,1.00
2023-01-13T10:16:49.728Z,0.80
2023-01-13T10:19:34.441Z,0.80
2023-01-13T10:22:23.326Z,1.00
2023-01-13T10:25:50.979Z,0.80
2023-01-13T10:28:19.638Z,0.90
2023-01-13T10:30:48.375Z,0.60
2023-01-13T10:33:23.370Z,0.70
2023-01-13T10:35:53.990Z,1.00
2023-01-13T10:38:26.313Z,0.90
2023-01-13T10:41:00.399Z,0.80
2023-01-13T10:43:30.307Z,0.90
2023-01-13T10:46:06.162Z,0.90
2023-01-13T10:48:54.162Z,0.90
2023-01-13T10:51:38.344Z,0.90
2023-01-13T10:54:14.624Z,0.90
2023-01-13T10:56:45.109Z,0.60
2023-01-13T10:59:21.309Z,0.50
2023-01-13T11:02:24.362Z,1.00
2023-01-13T11:04:53.698Z,0.60
2023-01-13T11:07:34.969Z,0.90
2023-01-13T11:10:10.321Z,0.60
2023-01-13T11:13:20.135Z,0.70
2023-01-13T11:16:14.942Z,0.60
2023-01-13T11:18:43.109Z,0.50
2023-01-13T11:21:23.187Z,0.50
2023-01-13T11:24:06.451Z,0.80
2023-01-13T11:26:51.997Z,1.50
2023-01-13T11:29:53.735Z,0.60
2023-01-13T11:32:25.319Z,0.60
2023-01-13T11:35:02.120Z,0.90
2023-01-13T11:37:38.058Z,0.70
2023-01-13T11:40:06.503Z,0.80
2023-01-13T11:42:49.967Z,0.70
2023-01-13T11:45:33.358Z,0.80
2023-01-13T11:48:03.317Z,0.90
2023-01-13T11:50:57.632Z,1.00
2023-01-13T11:53:53.751Z,0.90
2023-01-13T11:56:40.483Z,1.10
2023-01-13T11:59:44.483Z,0.90
2023-01-13T12:02:21.889Z,1.00
2023-01-13T12:05:08.082Z,1.20
2023-01-13T12:08:27.684Z,1.30
2023-01-13T12:11:05.496Z,1.10
2023-01-13T12:13:47.472Z,1.00
2023-01-13T12:16:31.831Z,1.10
2023-01-13T12:19:12.185Z,1.20
2023-01-13T12:21:46.364Z,1.40
2023-01-13T12:25:12.305Z,1.20
2023-01-13T12:28:36.293Z,1.10
2023-01-13T12:31:05.763Z,1.20
2023-01-13T12:34:08.122Z,1.50
2023-01-13T12:37:02.628Z,1.50
2023-01-13T12:39:49.783Z,1.30
2023-01-13T12:42:50.034Z,1.40
2023-01-13T12:45:27.860Z,1.70
2023-01-13T12:47:57.895Z,1.40
2023-01-13T12:50:26.667Z,1.30
2023-01-13T12:53:01.408Z,1.20
2023-01-13T12:55:37.512Z,1.60
2023-01-13T12:58:06.395Z,1.50
2023-01-13T13:00:40.277Z,1.20
2023-01-13T13:03:08.778Z,1.60
2023-01-13T13:05:56.501Z,1.10
2023-01-13T13:09:03.719Z,1.30
2023-01-13T13:11:50.187Z,1.30
2023-01-13T13:14:41.400Z,1.30
2023-01-13T13:17:28.933Z,1.20
2023-01-13T13:19:59.900Z,1.60
2023-01-13T13:22:28.047Z,0.90
2023-01-13T13:24:59.194Z,1.00
2023-01-13T13:28:13.147Z,1.00
2023-01-13T13:30:52.897Z,1.40
2023-01-13T13:33:39.057Z,1.00
2023-01-13T13:36:19.551Z,1.10
2023-01-13T13:39:19.144Z,1.20
2023-01-13T13:41:51.562Z,1.00
2023-01-13T13:44:22.338Z,1.50
2023-01-13T13:46:50.620Z,1.10
2023-01-13T13:49:21.784Z,1.10
2023-01-13T13:52:03.407Z,1.10
2023-01-13T13:54:32.632Z,1.40
2023-01-13T13:57:01.428Z,1.20
2023-01-13T13:59:30.740Z,1.70
2023-01-13T14:02:02.153Z,1.10
2023-01-13T14:04:36.832Z,1.00
2023-01-13T14:07:21.025Z,1.00
2023-01-13T14:09:53.856Z,1.40
2023-01-13T14:12:24.823Z,1.30
2023-01-13T14:14:53.489Z,1.60
2023-01-13T14:17:28.768Z,1.10
2023-01-13T14:20:13.792Z,1.50
2023-01-13T14:22:55.305Z,1.40
2023-01-13T14:25:30.151Z,1.30
2023-01-13T14:28:15.952Z,1.20
2023-01-13T14:30:45.029Z,1.40
2023-01-13T14:33:17.416Z,1.50
2023-01-13T14:36:06.862Z,1.30
2023-01-13T14:38:35.128Z,1.50
2023-01-13T14:41:11.985Z,1.50
2023-01-13T14:43:45.256Z,1.50
2023-01-13T14:46:14.424Z,1.50
2023-01-13T14:48:44.590Z,1.70
2023-01-13T14:51:22.073Z,1.50
2023-01-13T14:53:51.465Z,1.90
2023-01-13T14:56:51.012Z,2.10
2023-01-13T14:59:57.342Z,1.40
2023-01-13T15:02:29.031Z,1.60
2023-01-13T15:05:18.636Z,1.50
2023-01-13T15:07:54.785Z,1.40
2023-01-13T15:10:31.194Z,1.80
2023-01-13T15:13:05.793Z,1.70
2023-01-13T15:15:39.611Z,1.90
2023-01-13T15:18:16.331Z,1.70
2023-01-13T15:20:45.053Z,1.60
2023-01-13T15:23:13.236Z,1.50
2023-01-13T15:25:43.450Z,1.70
2023-01-13T15:28:17.167Z,1.60
2023-01-13T15:30:45.705Z,1.60
2023-01-13T15:33:14.995Z,1.70
2023-01-13T15:35:48.875Z,2.00
2023-01-13T15:38:20.179Z,1.90
2023-01-13T15:40:49.670Z,2.10
2023-01-13T15:43:20.895Z,1.50
2023-01-13T15:45:49.827Z,1.70
2023-01-13T15:48:20.674Z,1.90
2023-01-13T15:50:49.045Z,2.20
2023-01-13T15:53:17.529Z,1.80
2023-01-13T15:55:51.222Z,2.00
2023-01-13T15:58:22.432Z,1.70
2023-01-13T16:00:50.643Z,2.00
2023-01-13T16:03:19.529Z,1.90
2023-01-13T16:05:48.822Z,2.20
2023-01-13T16:08:22.868Z,1.80
2023-01-13T16:10:51.981Z,1.90
2023-01-13T16:13:20.210Z,2.00
2023-01-13T16:15:51.630Z,1.90
2023-01-13T16:18:22.882Z,2.20
2023-01-13T16:20:52.901Z,2.00
2023-01-13T16:23:24.898Z,2.40
2023-01-13T16:25:53.208Z,2.50
2023-01-13T16:28:24.879Z,2.50
2023-01-13T16:30:53.678Z,2.40
2023-01-13T16:33:22.138Z,2.30
2023-01-13T16:36:09.417Z,2.60
2023-01-13T16:41:07.652Z,2.20
2023-01-13T16:43:36.181Z,2.30
2023-01-13T16:46:21.958Z,2.40
2023-01-13T16:48:51.500Z,1.80
2023-01-13T16:51:22.284Z,2.20
2023-01-13T16:53:51.360Z,2.30
2023-01-13T16:56:30.235Z,2.50
2023-01-13T16:59:03.979Z,2.30
2023-01-13T17:01:34.768Z,2.10
2023-01-13T17:04:03.244Z,2.20
2023-01-13T17:06:44.816Z,2.00
2023-01-13T17:09:22.642Z,2.20
2023-01-13T17:11:51.235Z,2.30
2023-01-13T17:14:19.718Z,2.60
2023-01-13T17:16:48.035Z,2.30
2023-01-13T17:19:18.166Z,2.20
2023-01-13T17:21:46.778Z,2.40
2023-01-13T17:24:14.911Z,2.30
2023-01-13T17:26:46.601Z,2.60
2023-01-13T17:29:21.380Z,2.20
2023-01-13T17:31:50.729Z,2.60
2023-01-13T17:34:20.396Z,2.50
2023-01-13T17:36:49.142Z,2.40
2023-01-13T17:39:25.024Z,2.10
2023-01-13T17:41:54.137Z,2.40
2023-01-13T17:44:23.136Z,2.60
2023-01-13T17:46:52.011Z,2.40
2023-01-13T17:49:20.672Z,3.20
2023-01-13T17:51:49.246Z,2.70
2023-01-13T17:54:18.762Z,2.70
2023-01-13T17:56:47.378Z,3.30
2023-01-13T17:59:18.795Z,2.50
2023-01-13T18:01:47.061Z,3.00
2023-01-13T18:04:20.730Z,3.10
2023-01-13T18:06:49.592Z,3.20
2023-01-13T18:09:17.808Z,4.00
2023-01-13T18:11:47.405Z,3.50
2023-01-13T18:14:16.893Z,4.00
2023-01-13T18:16:45.284Z,3.70
2023-01-13T18:19:13.974Z,3.30
2023-01-13T18:21:42.585Z,3.50
2023-01-13T18:24:16.360Z,3.20
2023-01-13T18:26:44.555Z,3.50
2023-01-13T18:29:12.840Z,3.50
2023-01-13T18:31:41.177Z,4.40
2023-01-13T18:34:09.317Z,3.70
2023-01-13T18:36:38.124Z,3.70
2023-01-13T18:39:06.808Z,3.20
2023-01-13T18:41:35.049Z,2.90
2023-01-13T18:44:04.059Z,2.70
2023-01-13T18:46:32.986Z,3.40
2023-01-13T18:49:01.260Z,4.10
2023-01-13T18:51:29.556Z,4.90
2023-01-13T18:53:58.804Z,4.80
2023-01-13T18:56:28.270Z,7.90
2023-01-13T18:58:56.448Z,8.80
2023-01-13T19:01:26.995Z,8.40
2023-01-13T19:03:56.248Z,8.40
2023-01-13T19:06:24.602Z,8.10
2023-01-13T19:08:56.703Z,7.90
2023-01-13T19:11:28.347Z,8.20
2023-01-13T19:13:56.750Z,7.70
2023-01-13T19:16:24.993Z,8.60
2023-01-13T19:18:53.083Z,7.70
2023-01-13T19:21:21.499Z,6.40
2023-01-13T19:23:53.517Z,6.20
2023-01-13T19:26:21.689Z,6.10
2023-01-13T19:28:50.081Z,5.90
2023-01-13T19:31:19.303Z,6.50
2023-01-13T19:34:07.954Z,7.40
2023-01-13T19:36:36.377Z,6.40
2023-01-13T19:39:04.861Z,5.90
2023-01-13T19:41:33.555Z,5.30
2023-01-13T19:44:03.106Z,6.00
2023-01-13T19:46:33.072Z,5.10
2023-01-13T19:49:02.266Z,5.40
2023-01-13T19:51:30.693Z,5.30
2023-01-13T19:53:59.934Z,5.40
2023-01-13T19:56:28.791Z,5.40
2023-01-13T19:58:57.334Z,5.50
2023-01-13T20:01:26.519Z,5.90
2023-01-13T20:03:56.345Z,6.40
2023-01-13T20:06:24.693Z,5.80
2023-01-13T20:08:54.685Z,6.90
2023-01-13T20:11:23.402Z,7.40
2023-01-13T20:13:51.601Z,7.00
2023-01-13T20:16:19.907Z,7.40
2023-01-13T20:18:51.575Z,7.50
2023-01-13T20:21:20.122Z,7.80
2023-01-13T20:23:53.149Z,9.50
2023-01-13T20:26:23.059Z,8.00
2023-01-13T20:28:51.386Z,8.00
2023-01-13T20:31:19.617Z,8.80
2023-01-13T20:33:51.335Z,7.60
2023-01-13T20:36:31.400Z,7.70
2023-01-13T20:39:04.365Z,7.90
2023-01-13T20:41:33.037Z,7.00
2023-01-13T20:44:01.123Z,4.10
2023-01-13T20:46:29.333Z,6.60
2023-01-13T20:48:57.585Z,7.80
2023-01-13T20:51:25.773Z,7.40
2023-01-13T20:53:56.020Z,6.80
2023-01-13T20:56:24.504Z,6.40
2023-01-13T20:58:53.192Z,6.40
2023-01-13T21:01:22.729Z,5.90
2023-01-13T21:03:51.599Z,5.50
2023-01-13T21:06:19.909Z,5.70
2023-01-13T21:08:48.037Z,5.80
2023-01-13T21:11:17.190Z,6.70
2023-01-13T21:13:45.355Z,7.00
2023-01-13T21:16:13.584Z,6.90
2023-01-13T21:18:42.248Z,7.50
2023-01-13T21:21:10.337Z,6.90
2023-01-13T21:23:43.858Z,6.40
2023-01-13T21:26:12.033Z,6.80
2023-01-13T21:28:40.139Z,8.40
2023-01-13T21:31:09.885Z,8.00
2023-01-13T21:33:38.783Z,7.60
2023-01-13T21:36:09.380Z,6.00
2023-01-13T21:38:37.546Z,6.20
2023-01-13T21:41:08.620Z,3.10
2023-01-13T21:43:37.867Z,6.40
2023-01-13T21:46:12.579Z,6.00
2023-01-13T21:48:46.841Z,6.30
2023-01-13T21:51:15.260Z,6.20
2023-01-13T21:53:43.590Z,6.50
2023-01-13T21:56:11.788Z,6.20
2023-01-13T21:58:39.942Z,5.90
2023-01-13T22:01:08.155Z,6.50
2023-01-13T22:03:37.909Z,4.20
2023-01-13T22:06:06.934Z,6.60
2023-01-13T22:08:35.332Z,6.80
2023-01-13T22:11:03.961Z,7.40
2023-01-13T22:13:32.598Z,7.10
2023-01-13T22:16:03.753Z,7.60
2023-01-13T22:18:32.079Z,6.90
2023-01-13T22:21:01.546Z,6.50
2023-01-13T22:23:29.650Z,6.70
2023-01-13T22:26:06.701Z,3.70
2023-01-13T22:28:35.354Z,6.70
2023-01-13T22:31:08.298Z,7.10
2023-01-13T22:33:37.116Z,3.70
2023-01-13T22:36:06.056Z,6.70
2023-01-13T22:38:35.241Z,6.10
2023-01-13T22:41:06.122Z,5.00
2023-01-13T22:43:37.315Z,5.60
2023-01-13T22:46:11.254Z,5.20
2023-01-13T22:48:41.092Z,5.30
2023-01-13T22:51:15.847Z,5.50
2023-01-13T22:53:44.217Z,5.10
2023-01-13T22:56:22.451Z,5.30
2023-01-13T22:58:58.638Z,5.30
2023-01-13T23:01:30.693Z,6.20
2023-01-13T23:03:59.640Z,4.20
2023-01-13T23:06:31.293Z,5.60
2023-01-13T23:09:00.484Z,6.30
2023-01-13T23:11:29.904Z,6.20
2023-01-13T23:14:07.771Z,5.70
2023-01-13T23:16:39.330Z,6.40
2023-01-13T23:19:08.342Z,3.50
2023-01-13T23:21:38.052Z,4.00
2023-01-13T23:24:07.631Z,4.80
2023-01-13T23:26:37.141Z,4.60
2023-01-13T23:29:08.875Z,7.40
2023-01-13T23:31:38.371Z,8.30
2023-01-13T23:34:06.526Z,8.80
2023-01-13T23:36:35.000Z,8.10
2023-01-13T23:39:03.675Z,5.10
2023-01-13T23:41:31.980Z,5.20
2023-01-13T23:44:01.699Z,5.10
2023-01-13T23:46:31.545Z,5.30
2023-01-13T23:49:01.123Z,8.00
2023-01-13T23:51:29.755Z,4.90
2023-01-13T23:53:59.039Z,7.40
2023-01-13T23:56:29.982Z,7.30
2023-01-13T23:58:58.303Z,7.50
